createdAt,value
2018-04-10T00:02:15.831Z,84.43
2018-04-10T00:04:43.490Z,91.70
2018-04-10T00:07:11.874Z,89.77
2018-04-10T00:09:40.299Z,87.43
2018-04-10T00:12:07.924Z,87.03
2018-04-10T00:14:35.576Z,90.97
2018-04-10T00:17:03.908Z,98.00
2018-04-10T00:19:31.570Z,87.43
2018-04-10T00:21:59.194Z,89.67
2018-04-10T00:24:26.857Z,88.30
2018-04-10T00:26:54.474Z,88.50
2018-04-10T00:29:22.129Z,86.07
2018-04-10T00:31:49.748Z,88.90
2018-04-10T00:34:17.398Z,82.87
2018-04-10T00:36:45.056Z,85.07
2018-04-10T00:39:13.190Z,89.30
2018-04-10T00:41:40.851Z,86.93
2018-04-10T00:44:09.276Z,99.82
2018-04-10T00:46:36.891Z,90.45
2018-04-10T00:49:04.717Z,91.50
2018-04-10T00:51:32.370Z,87.15
2018-04-10T00:53:59.983Z,85.68
2018-04-10T00:56:28.622Z,95.20
2018-04-10T00:58:56.281Z,86.70
2018-04-10T01:01:23.894Z,96.50
2018-04-10T01:03:51.543Z,88.97
2018-04-10T01:06:19.163Z,86.13
2018-04-10T01:08:46.811Z,88.57
2018-04-10T01:11:14.445Z,80.70
2018-04-10T01:13:42.094Z,83.87
2018-04-10T01:16:09.747Z,89.50
2018-04-10T01:18:37.363Z,84.17
2018-04-10T01:21:05.018Z,79.90
2018-04-10T01:23:32.673Z,90.10
2018-04-10T01:26:00.299Z,87.13
2018-04-10T01:28:27.958Z,78.12
2018-04-10T01:30:55.573Z,76.17
2018-04-10T01:33:24.006Z,82.50
2018-04-10T01:35:51.617Z,86.03
2018-04-10T01:38:19.303Z,78.00
2018-04-10T01:40:46.955Z,77.60
2018-04-10T01:43:14.580Z,75.63
2018-04-10T01:45:42.231Z,76.80
2018-04-10T01:48:09.842Z,76.97
2018-04-10T01:50:38.267Z,71.07
2018-04-10T01:53:05.899Z,79.17
2018-04-10T01:55:33.549Z,75.87
2018-04-10T01:58:01.162Z,65.40
2018-04-10T02:00:28.831Z,75.27
2018-04-10T02:02:58.715Z,74.90
2018-04-10T02:05:26.355Z,69.57
2018-04-10T02:07:53.967Z,71.77
2018-04-10T02:10:21.625Z,72.40
2018-04-10T02:21:21.374Z,68.75
2018-04-10T02:23:49.130Z,72.43
2018-04-10T02:26:16.785Z,72.53
2018-04-10T02:28:44.395Z,74.50
2018-04-10T02:31:12.815Z,69.60
2018-04-10T02:33:40.459Z,68.00
2018-04-10T02:36:08.824Z,67.80
2018-04-10T02:38:36.482Z,68.10
2018-04-10T02:41:04.127Z,72.30
2018-04-10T02:43:32.507Z,74.87
2018-04-10T02:46:00.923Z,72.10
2018-04-10T02:48:28.536Z,67.70
2018-04-10T02:50:56.195Z,73.80
2018-04-10T02:53:23.839Z,76.70
2018-04-10T02:55:51.487Z,72.20
2018-04-10T02:58:19.100Z,84.25
2018-04-10T03:00:46.750Z,79.97
2018-04-10T03:03:14.429Z,77.10
2018-04-10T03:05:42.085Z,78.95
2018-04-10T03:08:09.700Z,79.93
2018-04-10T03:10:37.551Z,83.40
2018-04-10T03:13:05.814Z,82.57
2018-04-10T03:15:33.458Z,80.03
2018-04-10T03:18:01.071Z,96.97
2018-04-10T03:20:28.731Z,81.77
2018-04-10T03:22:56.343Z,90.47
2018-04-10T03:25:24.003Z,92.90
2018-04-10T03:27:51.786Z,89.40
2018-04-10T03:30:19.398Z,81.63
2018-04-10T03:32:47.012Z,79.53
2018-04-10T03:35:14.662Z,84.25
2018-04-10T03:37:42.412Z,84.80
2018-04-10T03:40:10.059Z,90.73
2018-04-10T03:42:37.703Z,84.63
2018-04-10T03:45:05.394Z,89.37
2018-04-10T03:47:33.041Z,95.63
2018-04-10T03:50:00.673Z,101.07
2018-04-10T03:52:28.890Z,88.83
2018-04-10T03:54:57.227Z,86.27
2018-04-10T03:57:24.892Z,85.95
2018-04-10T03:59:52.547Z,92.68
2018-04-10T04:02:20.263Z,90.50
2018-04-10T04:04:47.882Z,81.57
2018-04-10T04:07:15.788Z,85.00
2018-04-10T04:09:43.402Z,87.07
2018-04-10T04:12:11.111Z,81.05
2018-04-10T04:14:38.751Z,85.35
2018-04-10T04:17:18.716Z,79.03
2018-04-10T04:19:58.127Z,77.12
2018-04-10T04:22:37.473Z,81.37
2018-04-10T04:25:05.118Z,78.50
2018-04-10T04:27:32.779Z,80.55
2018-04-10T04:30:00.407Z,80.13
2018-04-10T04:32:30.467Z,84.72
2018-04-10T04:35:03.771Z,77.97
2018-04-10T04:37:33.122Z,71.77
2018-04-10T04:40:00.976Z,90.00
2018-04-10T04:42:29.347Z,71.80
2018-04-10T04:44:57.731Z,76.23
2018-04-10T04:47:25.899Z,80.10
2018-04-10T04:49:54.759Z,81.70
2018-04-10T04:52:22.407Z,67.13
2018-04-10T04:54:50.031Z,74.50
2018-04-10T04:57:17.702Z,73.30
2018-04-10T04:59:46.348Z,75.53
2018-04-10T05:02:14.198Z,76.57
2018-04-10T05:04:41.882Z,72.07
2018-04-10T05:07:10.077Z,74.43
2018-04-10T05:09:40.615Z,65.97
2018-04-10T05:12:08.280Z,73.40
2018-04-10T05:14:36.171Z,71.57
2018-04-10T05:17:07.083Z,72.77
2018-04-10T05:19:35.164Z,67.67
2018-04-10T05:22:03.215Z,66.35
2018-04-10T05:24:31.304Z,66.40
2018-04-10T05:27:00.312Z,67.90
2018-04-10T05:29:29.419Z,69.67
2018-04-10T05:31:57.596Z,67.10
2018-04-10T05:34:26.599Z,67.78
2018-04-10T05:36:55.027Z,72.32
2018-04-10T05:39:22.711Z,66.83
2018-04-10T05:41:50.391Z,63.15
2018-04-10T05:44:18.079Z,64.43
2018-04-10T05:46:46.087Z,63.83
2018-04-10T05:49:15.002Z,67.83
2018-04-10T05:51:42.674Z,63.40
2018-04-10T05:54:12.270Z,63.00
2018-04-10T05:56:40.123Z,62.62
2018-04-10T05:59:07.790Z,59.53
2018-04-10T06:01:40.876Z,58.07
2018-04-10T06:04:08.567Z,58.20
2018-04-10T06:06:37.958Z,61.07
2018-04-10T06:09:05.886Z,62.15
2018-04-10T06:11:33.645Z,62.60
2018-04-10T06:14:02.331Z,62.30
2018-04-10T06:16:31.922Z,54.13
2018-04-10T06:19:00.006Z,55.83
2018-04-10T06:21:29.015Z,55.55
2018-04-10T06:23:57.405Z,56.03
2018-04-10T06:26:25.082Z,62.97
2018-04-10T06:28:54.708Z,57.17
2018-04-10T06:31:23.444Z,54.55
2018-04-10T06:33:51.087Z,60.07
2018-04-10T06:36:18.869Z,58.83
2018-04-10T06:38:48.145Z,57.43
2018-04-10T06:41:15.811Z,58.00
2018-04-10T06:43:43.443Z,59.50
2018-04-10T06:46:11.129Z,60.73
2018-04-10T06:48:38.981Z,53.37
2018-04-10T06:51:06.634Z,55.33
2018-04-10T06:53:35.898Z,55.67
2018-04-10T06:56:03.515Z,52.93
2018-04-10T06:58:31.176Z,61.13
2018-04-10T07:00:59.140Z,55.20
2018-04-10T07:03:28.594Z,53.27
2018-04-10T07:05:57.019Z,59.97
2018-04-10T07:08:24.703Z,60.88
2018-04-10T07:10:52.372Z,63.40
2018-04-10T07:13:20.001Z,56.93
2018-04-10T07:15:47.773Z,52.10
2018-04-10T07:18:15.469Z,58.83
2018-04-10T07:20:43.855Z,57.63
2018-04-10T07:23:12.530Z,51.10
2018-04-10T07:25:41.890Z,53.13
2018-04-10T07:28:09.844Z,51.83
2018-04-10T07:30:37.469Z,51.15
2018-04-10T07:33:05.411Z,50.25
2018-04-10T07:35:33.033Z,54.17
2018-04-10T07:38:00.722Z,52.72
2018-04-10T07:40:28.467Z,50.33
2018-04-10T07:42:56.127Z,49.00
2018-04-10T07:45:23.747Z,46.90
2018-04-10T07:47:51.403Z,46.27
2018-04-10T07:50:19.786Z,48.60
2018-04-10T07:52:48.215Z,51.40
2018-04-10T07:55:15.842Z,45.50
2018-04-10T07:57:43.499Z,45.93
2018-04-10T08:00:11.183Z,42.75
2018-04-10T08:02:38.995Z,42.27
2018-04-10T08:05:06.667Z,42.30
2018-04-10T08:07:35.094Z,42.37
2018-04-10T08:10:02.721Z,42.25
2018-04-10T08:12:30.395Z,42.47
2018-04-10T08:14:58.257Z,49.70
2018-04-10T08:17:25.902Z,49.60
2018-04-10T08:19:53.527Z,45.50
2018-04-10T08:22:21.245Z,44.57
2018-04-10T08:24:48.846Z,43.30
2018-04-10T08:27:17.267Z,40.67
2018-04-10T08:29:44.919Z,44.60
2018-04-10T08:32:12.531Z,42.87
2018-04-10T08:34:40.202Z,41.83
2018-04-10T08:37:08.588Z,45.20
2018-04-10T08:39:36.970Z,42.50
2018-04-10T08:42:05.386Z,41.70
2018-04-10T08:44:32.998Z,37.97
2018-04-10T08:47:01.387Z,43.13
2018-04-10T08:49:29.030Z,40.97
2018-04-10T08:51:56.719Z,40.78
2018-04-10T08:54:25.122Z,39.30
2018-04-10T08:56:53.448Z,36.90
2018-04-10T08:59:21.072Z,37.60
2018-04-10T09:01:48.739Z,42.53
2018-04-10T09:04:16.351Z,42.70
2018-04-10T09:06:44.016Z,46.87
2018-04-10T09:09:11.637Z,39.83
2018-04-10T09:11:39.259Z,41.97
2018-04-10T09:14:06.910Z,43.22
2018-04-10T09:16:34.564Z,38.40
2018-04-10T09:19:02.380Z,41.77
2018-04-10T09:21:29.995Z,44.37
2018-04-10T09:23:57.647Z,46.30
2018-04-10T09:26:25.277Z,42.93
2018-04-10T09:28:52.939Z,54.10
2018-04-10T09:31:20.559Z,51.50
2018-04-10T09:33:48.222Z,54.58
2018-04-10T09:36:15.836Z,53.03
2018-04-10T09:38:44.467Z,50.27
2018-04-10T09:41:12.078Z,53.67
2018-04-10T09:43:39.802Z,54.03
2018-04-10T09:46:07.446Z,50.03
2018-04-10T09:48:35.771Z,57.03
2018-04-10T09:51:03.431Z,51.43
2018-04-10T09:53:31.859Z,54.75
2018-04-10T09:55:59.478Z,51.03
2018-04-10T09:58:28.560Z,52.55
2018-04-10T10:00:56.228Z,46.20
2018-04-10T10:03:24.609Z,54.10
2018-04-10T10:05:53.032Z,46.20
2018-04-10T10:08:20.688Z,51.28
2018-04-10T10:10:49.059Z,47.63
2018-04-10T10:13:16.680Z,46.57
2018-04-10T10:15:44.340Z,46.70
2018-04-10T10:18:13.483Z,47.58
2018-04-10T10:20:41.099Z,46.50
2018-04-10T10:23:09.482Z,47.13
2018-04-10T10:25:37.139Z,48.00
2018-04-10T10:28:04.791Z,46.15
2018-04-10T10:30:33.176Z,41.03
2018-04-10T10:33:00.884Z,39.92
2018-04-10T10:35:28.503Z,38.50
2018-04-10T10:37:56.160Z,38.92
2018-04-10T10:40:23.819Z,39.50
2018-04-10T10:42:51.467Z,41.13
2018-04-10T10:45:19.119Z,36.30
2018-04-10T10:47:46.787Z,35.58
2018-04-10T10:50:15.933Z,42.90
2018-04-10T10:52:43.585Z,34.07
2018-04-10T10:55:11.241Z,37.22
2018-04-10T10:57:38.894Z,40.20
2018-04-10T11:00:06.510Z,37.63
2018-04-10T11:02:34.123Z,35.43
2018-04-10T11:05:01.786Z,43.38
2018-04-10T11:07:29.404Z,34.73
2018-04-10T11:09:57.062Z,33.97
2018-04-10T11:12:24.894Z,33.53
2018-04-10T11:14:53.239Z,33.57
2018-04-10T11:17:20.913Z,33.90
2018-04-10T11:19:48.577Z,35.97
2018-04-10T11:22:16.187Z,35.60
2018-04-10T11:24:43.847Z,35.83
2018-04-10T11:27:12.273Z,30.37
2018-04-10T11:29:39.933Z,33.20
2018-04-10T11:32:07.589Z,33.10
2018-04-10T11:34:35.208Z,37.08
2018-04-10T11:37:03.632Z,33.90
2018-04-10T11:39:31.295Z,34.90
2018-04-10T11:41:59.560Z,36.33
2018-04-10T11:44:27.223Z,45.70
2018-04-10T11:46:54.874Z,36.75
2018-04-10T11:49:22.531Z,34.15
2018-04-10T11:51:50.148Z,33.40
2018-04-10T11:54:18.719Z,38.17
2018-04-10T11:56:46.378Z,33.17
2018-04-10T11:59:14.036Z,40.72
2018-04-10T12:01:41.877Z,38.00
2018-04-10T12:04:09.555Z,36.30
2018-04-10T12:06:37.180Z,35.47
2018-04-10T12:09:05.728Z,36.90
2018-04-10T12:11:34.723Z,33.03
2018-04-10T12:14:03.107Z,37.93
2018-04-10T12:16:30.766Z,35.75
2018-04-10T12:18:58.389Z,32.37
2018-04-10T12:21:26.055Z,33.23
2018-04-10T12:23:53.715Z,43.33
2018-04-10T12:26:21.336Z,37.08
2018-04-10T12:28:48.954Z,31.20
2018-04-10T12:31:16.607Z,35.20
2018-04-10T12:33:44.235Z,32.07
2018-04-10T12:36:11.896Z,40.30
2018-04-10T12:38:39.523Z,30.60
2018-04-10T12:41:07.187Z,36.47
2018-04-10T12:43:34.801Z,30.07
2018-04-10T12:46:02.469Z,28.87
2018-04-10T12:48:30.854Z,29.92
2018-04-10T12:50:59.239Z,34.07
2018-04-10T12:53:27.663Z,35.80
2018-04-10T12:55:55.275Z,28.43
2018-04-10T12:58:23.698Z,28.37
2018-04-10T13:00:51.318Z,30.52
2018-04-10T13:03:18.985Z,29.57
2018-04-10T13:05:46.603Z,32.97
2018-04-10T13:08:15.290Z,30.30
2018-04-10T13:10:42.963Z,31.12
2018-04-10T13:13:10.823Z,28.37
2018-04-10T13:15:38.662Z,28.60
2018-04-10T13:18:06.322Z,29.98
2018-04-10T13:20:33.943Z,34.20
2018-04-10T13:23:01.600Z,29.33
2018-04-10T13:25:29.222Z,28.97
2018-04-10T13:27:57.644Z,28.23
2018-04-10T13:30:25.302Z,25.90
2018-04-10T13:32:52.920Z,36.17
2018-04-10T13:35:22.095Z,29.87
2018-04-10T13:37:49.721Z,25.00
2018-04-10T13:40:17.383Z,32.50
2018-04-10T13:42:44.997Z,31.67
2018-04-10T13:45:12.618Z,32.72
2018-04-10T13:47:40.266Z,29.43
2018-04-10T13:50:08.049Z,27.35
2018-04-10T13:52:36.159Z,26.98
2018-04-10T13:55:03.783Z,27.40
2018-04-10T13:57:31.473Z,28.50
2018-04-10T13:59:59.108Z,26.23
2018-04-10T14:02:26.762Z,24.08
2018-04-10T14:04:54.427Z,33.17
2018-04-10T14:07:22.135Z,26.62
2018-04-10T14:09:49.800Z,29.10
2018-04-10T14:12:18.181Z,26.83
2018-04-10T14:14:45.841Z,27.93
2018-04-10T14:17:14.151Z,27.83
2018-04-10T14:19:41.815Z,29.70
2018-04-10T14:22:09.476Z,32.17
2018-04-10T14:24:37.087Z,31.70
2018-04-10T14:27:04.744Z,27.47
2018-04-10T14:29:33.176Z,31.00
2018-04-10T14:32:00.844Z,27.47
2018-04-10T14:34:28.513Z,27.20
2018-04-10T14:36:56.190Z,26.50
2018-04-10T14:39:23.843Z,24.00
2018-04-10T14:41:51.495Z,24.17
2018-04-10T14:44:19.136Z,29.75
2018-04-10T14:46:47.007Z,29.17
2018-04-10T14:49:14.670Z,25.80
2018-04-10T14:51:42.320Z,30.63
2018-04-10T14:54:09.979Z,23.90
2018-04-10T14:56:37.611Z,29.60
2018-04-10T14:59:05.275Z,26.10
2018-04-10T15:01:32.890Z,28.20
2018-04-10T15:04:00.889Z,33.87
2018-04-10T15:06:29.287Z,31.03
2018-04-10T15:08:56.984Z,23.73
2018-04-10T15:11:24.637Z,22.83
2018-04-10T15:13:52.305Z,32.10
2018-04-10T15:16:21.451Z,23.47
2018-04-10T15:18:49.131Z,24.37
2018-04-10T15:21:16.806Z,25.55
2018-04-10T15:23:44.423Z,26.67
2018-04-10T15:26:12.079Z,22.02
2018-04-10T15:28:40.535Z,22.63
2018-04-10T15:31:08.738Z,29.30
2018-04-10T15:33:37.136Z,31.33
2018-04-10T15:36:04.813Z,23.20
2018-04-10T15:38:32.440Z,26.20
2018-04-10T15:41:00.105Z,24.97
2018-04-10T15:43:27.723Z,20.43
2018-04-10T15:45:55.391Z,26.05
2018-04-10T15:48:23.063Z,21.83
2018-04-10T15:50:51.439Z,22.80
2018-04-10T15:53:20.050Z,24.67
2018-04-10T15:55:47.702Z,22.33
2018-04-10T15:58:15.338Z,24.70
2018-04-10T16:00:43.772Z,27.80
2018-04-10T16:03:11.398Z,23.17
2018-04-10T16:05:39.051Z,20.52
2018-04-10T16:08:08.526Z,19.77
2018-04-10T16:10:36.827Z,21.55
2018-04-10T16:13:04.455Z,24.95
2018-04-10T16:15:32.515Z,21.10
2018-04-10T16:18:01.663Z,22.05
2018-04-10T16:20:30.180Z,21.10
2018-04-10T16:22:58.654Z,22.20
2018-04-10T16:25:26.270Z,23.43
2018-04-10T16:27:55.390Z,20.40
2018-04-10T16:30:23.047Z,22.03
2018-04-10T16:32:51.703Z,24.43
2018-04-10T16:35:20.134Z,25.83
2018-04-10T16:37:47.811Z,23.17
2018-04-10T16:40:15.429Z,22.63
2018-04-10T16:42:43.079Z,20.23
2018-04-10T16:45:10.807Z,21.10
2018-04-10T16:47:38.556Z,22.60
2018-04-10T16:50:06.627Z,20.27
2018-04-10T16:52:34.276Z,24.13
2018-04-10T16:55:02.548Z,23.20
2018-04-10T16:57:30.288Z,24.40
2018-04-10T16:59:57.953Z,25.95
2018-04-10T17:02:25.562Z,23.60
2018-04-10T17:04:53.846Z,22.30
2018-04-10T17:07:22.282Z,28.00
2018-04-10T17:09:49.937Z,24.53
2018-04-10T17:12:17.587Z,25.87
2018-04-10T17:14:45.208Z,24.60
2018-04-10T17:17:13.623Z,23.10
2018-04-10T17:19:41.248Z,21.92
2018-04-10T17:22:08.915Z,25.43
2018-04-10T17:24:36.567Z,31.67
2018-04-10T17:27:05.011Z,22.53
2018-04-10T17:29:33.421Z,27.07
2018-04-10T17:32:02.992Z,21.57
2018-04-10T17:34:30.759Z,23.60
2018-04-10T17:36:58.406Z,27.07
2018-04-10T17:39:26.031Z,27.70
2018-04-10T17:41:54.448Z,26.20
2018-04-10T17:44:22.107Z,25.03
2018-04-10T17:46:49.805Z,23.87
2018-04-10T17:49:18.221Z,25.87
2018-04-10T17:51:45.887Z,24.08
2018-04-10T17:54:13.805Z,26.37
2018-04-10T17:56:42.556Z,24.23
2018-04-10T17:59:11.739Z,22.17
2018-04-10T18:01:39.371Z,25.50
2018-04-10T18:04:07.076Z,24.20
2018-04-10T18:06:34.756Z,29.80
2018-04-10T18:09:02.446Z,23.97
2018-04-10T18:11:30.311Z,22.85
2018-04-10T18:13:59.835Z,21.50
2018-04-10T18:16:28.526Z,25.73
2018-04-10T18:18:58.414Z,25.47
2018-04-10T18:21:27.023Z,29.90
2018-04-10T18:23:58.500Z,27.23
2018-04-10T18:26:27.395Z,25.03
2018-04-10T18:28:55.098Z,29.48
2018-04-10T18:31:22.771Z,32.63
2018-04-10T18:33:50.598Z,26.55
2018-04-10T18:36:21.113Z,26.47
2018-04-10T18:38:48.806Z,28.30
2018-04-10T18:41:18.796Z,28.97
2018-04-10T18:43:46.854Z,28.40
2018-04-10T18:46:14.708Z,24.93
2018-04-10T18:48:42.842Z,30.67
2018-04-10T18:51:10.451Z,34.57
2018-04-10T18:53:38.703Z,27.53
2018-04-10T18:56:06.623Z,28.47
2018-04-10T18:58:35.067Z,26.52
2018-04-10T19:01:03.127Z,24.75
2018-04-10T19:03:31.813Z,32.78
2018-04-10T19:06:00.498Z,25.47
2018-04-10T19:08:28.159Z,33.25
2018-04-10T19:10:55.936Z,33.93
2018-04-10T19:13:23.920Z,26.10
2018-04-10T19:15:53.135Z,32.03
2018-04-10T19:18:22.691Z,28.27
2018-04-10T19:20:52.776Z,23.23
2018-04-10T19:23:20.672Z,31.63
2018-04-10T19:25:49.930Z,26.70
2018-04-10T19:28:18.420Z,24.75
2018-04-10T19:30:46.470Z,26.30
2018-04-10T19:33:15.677Z,23.80
2018-04-10T19:35:43.392Z,26.00
2018-04-10T19:38:11.409Z,23.42
2018-04-10T19:40:39.603Z,27.83
2018-04-10T19:43:08.561Z,29.92
2018-04-10T19:45:37.122Z,25.95
2018-04-10T19:48:07.266Z,29.40
2018-04-10T19:50:36.007Z,24.92
2018-04-10T19:53:04.479Z,28.33
2018-04-10T19:55:32.278Z,26.50
2018-04-10T19:58:00.659Z,27.15
2018-04-10T20:00:29.315Z,23.50
2018-04-10T20:02:57.635Z,26.52
2018-04-10T20:05:27.196Z,27.90
2018-04-10T20:07:55.709Z,25.77
2018-04-10T20:10:24.391Z,32.38
2018-04-10T20:12:52.631Z,31.80
2018-04-10T20:15:20.295Z,24.33
2018-04-10T20:17:47.907Z,26.80
2018-04-10T20:20:17.360Z,28.87
2018-04-10T20:22:46.319Z,33.42
2018-04-10T20:25:13.930Z,28.70
2018-04-10T20:27:41.904Z,22.20
2018-04-10T20:30:12.277Z,25.07
2018-04-10T20:32:40.058Z,24.53
2018-04-10T20:35:07.675Z,24.33
2018-04-10T20:37:36.732Z,28.55
2018-04-10T20:40:04.366Z,24.07
2018-04-10T20:42:32.009Z,31.57
2018-04-10T20:45:00.909Z,22.67
2018-04-10T20:47:30.527Z,26.40
2018-04-10T20:49:58.967Z,24.97
2018-04-10T20:52:26.613Z,24.47
2018-04-10T20:54:54.315Z,24.30
2018-04-10T20:57:23.515Z,24.37
2018-04-10T20:59:51.144Z,25.75
2018-04-10T21:02:18.802Z,24.27
2018-04-10T21:04:46.414Z,23.92
2018-04-10T21:07:15.537Z,26.70
2018-04-10T21:09:43.957Z,28.73
2018-04-10T21:12:12.883Z,26.70
2018-04-10T21:14:40.535Z,21.83
2018-04-10T21:17:09.933Z,22.15
2018-04-10T21:19:37.545Z,22.10
2018-04-10T21:22:05.525Z,23.27
2018-04-10T21:24:33.131Z,25.13
2018-04-10T21:27:01.364Z,22.85
2018-04-10T21:29:29.319Z,22.70
2018-04-10T21:31:57.416Z,19.95
2018-04-10T21:34:25.085Z,19.42
2018-04-10T21:36:52.703Z,18.00
2018-04-10T21:39:20.353Z,22.03
2018-04-10T21:41:47.969Z,21.10
2018-04-10T21:44:15.727Z,19.30
2018-04-10T21:46:43.380Z,21.77
2018-04-10T21:49:11.004Z,23.73
2018-04-10T21:51:39.003Z,15.77
2018-04-10T21:54:06.635Z,19.83
2018-04-10T21:56:34.443Z,18.35
2018-04-10T21:59:02.098Z,18.65
2018-04-10T22:01:29.719Z,18.65
2018-04-10T22:03:57.375Z,14.48
2018-04-10T22:06:25.024Z,19.23
2018-04-10T22:08:52.699Z,15.50
2018-04-10T22:11:20.315Z,14.83
2018-04-10T22:13:47.927Z,15.98
2018-04-10T22:16:15.618Z,16.83
2018-04-10T22:18:43.274Z,13.20
2018-04-10T22:21:10.890Z,15.97
2018-04-10T22:23:39.311Z,16.47
2018-04-10T22:26:06.929Z,16.03
2018-04-10T22:28:34.542Z,22.40
2018-04-10T22:31:02.193Z,19.40
2018-04-10T22:33:29.878Z,13.95
2018-04-10T22:35:57.479Z,18.00
2018-04-10T22:38:25.096Z,16.83
2018-04-10T22:40:52.760Z,16.93
2018-04-10T22:43:20.379Z,14.95
2018-04-10T22:45:48.037Z,28.37
2018-04-10T22:48:15.700Z,14.85
2018-04-10T22:50:43.352Z,15.93
2018-04-10T22:53:11.036Z,18.87
2018-04-10T22:55:38.875Z,19.70
2018-04-10T22:58:06.811Z,17.67
2018-04-10T23:00:49.339Z,14.40
2018-04-10T23:03:17.576Z,14.33
2018-04-10T23:05:45.239Z,19.03
2018-04-10T23:08:12.861Z,19.37
2018-04-10T23:10:40.516Z,14.43
2018-04-10T23:13:08.137Z,16.27
2018-04-10T23:15:35.770Z,15.47
2018-04-10T23:18:04.196Z,21.03
2018-04-10T23:20:31.823Z,16.93
2018-04-10T23:22:59.479Z,19.50
2018-04-10T23:25:27.105Z,16.20
2018-04-10T23:27:54.729Z,17.20
2018-04-10T23:30:22.384Z,17.17
2018-04-10T23:32:50.056Z,18.05
2018-04-10T23:35:17.863Z,15.17
2018-04-10T23:37:45.480Z,16.67
2018-04-10T23:40:13.150Z,13.00
2018-04-10T23:42:40.771Z,19.10
2018-04-10T23:45:08.420Z,20.97
2018-04-10T23:47:36.962Z,15.32
2018-04-10T23:50:04.623Z,17.83
2018-04-10T23:52:32.242Z,17.67
2018-04-10T23:55:00.655Z,15.45
2018-04-10T23:57:28.434Z,13.13
2018-04-10T23:59:56.078Z,16.97
